createdAt,value
2019-04-11T00:02:22.695Z,21.17
2019-04-11T00:06:29.807Z,22.23
2019-04-11T00:10:37.506Z,20.73
2019-04-11T00:14:45.536Z,20.73
2019-04-11T00:18:54.725Z,21.80
2019-04-11T00:23:02.912Z,20.07
2019-04-11T00:27:10.763Z,20.80
2019-04-11T00:31:18.804Z,22.83
2019-04-11T00:35:25.953Z,20.37
2019-04-11T00:39:33.754Z,22.07
2019-04-11T00:43:43.774Z,24.10
2019-04-11T00:47:51.225Z,23.33
2019-04-11T00:51:58.364Z,20.33
2019-04-11T00:56:06.187Z,19.73
2019-04-11T01:00:13.405Z,19.47
2019-04-11T01:04:20.597Z,20.93
2019-04-11T01:08:29.459Z,20.50
2019-04-11T01:12:36.558Z,19.87
2019-04-11T01:16:54.460Z,19.17
2019-04-11T01:21:02.355Z,20.60
2019-04-11T01:25:10.496Z,21.13
2019-04-11T01:29:17.620Z,22.40
2019-04-11T01:33:24.418Z,21.17
2019-04-11T01:37:31.456Z,18.80
2019-04-11T01:41:38.432Z,20.67
2019-04-11T01:45:45.641Z,19.47
2019-04-11T01:49:53.071Z,19.03
2019-04-11T01:53:59.857Z,18.77
2019-04-11T01:58:06.724Z,21.50
2019-04-11T02:02:28.696Z,19.63
2019-04-11T02:06:36.205Z,18.63
2019-04-11T02:10:43.269Z,18.93
2019-04-11T02:14:50.181Z,17.77
2019-04-11T02:18:56.949Z,18.73
2019-04-11T02:23:13.391Z,18.53
2019-04-11T02:27:24.432Z,18.83
2019-04-11T02:31:32.653Z,19.33
2019-04-11T02:35:40.432Z,18.60
2019-04-11T02:39:49.341Z,18.57
2019-04-11T02:43:57.617Z,18.80
2019-04-11T02:48:09.191Z,20.40
2019-04-11T02:52:15.256Z,21.27
2019-04-11T02:56:23.792Z,19.40
2019-04-11T03:00:33.669Z,19.50
2019-04-11T03:04:41.666Z,17.63
2019-04-11T03:08:50.822Z,18.33
2019-04-11T03:12:59.019Z,19.83
2019-04-11T03:17:16.398Z,19.67
2019-04-11T03:21:20.487Z,18.37
2019-04-11T03:25:24.689Z,19.17
2019-04-11T03:29:34.875Z,17.30
2019-04-11T03:34:31.426Z,19.07
2019-04-11T03:38:12.447Z,18.47
2019-04-11T03:42:15.809Z,17.40
2019-04-11T03:46:25.022Z,16.33
2019-04-11T03:50:20.706Z,19.00
2019-04-11T03:54:25.295Z,18.03
2019-04-11T03:58:33.184Z,18.07
2019-04-11T04:02:41.350Z,17.87
2019-04-11T04:06:49.898Z,18.93
2019-04-11T04:11:23.176Z,18.03
2019-04-11T04:15:51.917Z,20.43
2019-04-11T04:20:05.719Z,18.07
2019-04-11T04:24:39.039Z,20.17
2019-04-11T04:28:43.173Z,17.70
2019-04-11T04:32:49.957Z,17.03
2019-04-11T04:36:57.941Z,19.97
2019-04-11T04:41:20.049Z,17.50
2019-04-11T04:45:19.214Z,18.10
2019-04-11T04:49:27.959Z,14.47
2019-04-11T04:53:35.574Z,17.70
2019-04-11T04:57:42.983Z,16.07
2019-04-11T05:01:50.852Z,16.97
2019-04-11T05:05:58.329Z,16.73
2019-04-11T05:10:08.796Z,19.47
2019-04-11T05:14:16.390Z,19.07
2019-04-11T05:18:23.701Z,16.60
2019-04-11T05:22:31.639Z,14.60
2019-04-11T05:26:39.631Z,15.43
2019-04-11T05:30:46.482Z,14.63
2019-04-11T05:34:53.147Z,16.10
2019-04-11T05:39:00.405Z,15.73
2019-04-11T05:43:09.096Z,14.20
2019-04-11T05:47:18.517Z,15.90
2019-04-11T05:51:25.245Z,19.13
2019-04-11T05:55:36.345Z,14.53
2019-04-11T05:59:45.925Z,15.93
2019-04-11T06:03:55.475Z,16.40
2019-04-11T06:08:05.398Z,13.17
2019-04-11T06:12:31.825Z,16.00
2019-04-11T06:16:46.229Z,15.50
2019-04-11T06:20:51.489Z,13.77
2019-04-11T06:25:19.307Z,12.83
2019-04-11T06:29:31.256Z,12.77
2019-04-11T06:33:42.850Z,16.17
2019-04-11T06:38:08.145Z,13.90
2019-04-11T06:42:46.173Z,14.80
2019-04-11T06:47:10.704Z,15.17
2019-04-11T06:51:30.986Z,15.43
2019-04-11T06:55:57.338Z,12.53
2019-04-11T07:00:05.238Z,13.07
2019-04-11T07:04:22.229Z,13.43
2019-04-11T07:08:34.201Z,12.83
2019-04-11T07:13:02.001Z,13.00
2019-04-11T07:17:27.502Z,11.63
2019-04-11T07:21:36.461Z,12.70
2019-04-11T07:26:04.479Z,13.10
2019-04-11T07:30:29.371Z,14.83
2019-04-11T07:34:54.382Z,13.63
2019-04-11T07:39:09.833Z,12.37
2019-04-11T07:43:19.430Z,10.97
2019-04-11T07:47:37.585Z,11.13
2019-04-11T07:51:48.609Z,9.07
2019-04-11T07:55:57.462Z,9.63
2019-04-11T08:00:38.608Z,8.40
2019-04-11T08:05:07.365Z,8.90
2019-04-11T08:09:33.490Z,10.97
2019-04-11T08:13:57.880Z,9.23
2019-04-11T08:18:12.475Z,8.43
2019-04-11T08:22:30.692Z,9.70
2019-04-11T08:27:05.862Z,9.10
2019-04-11T08:31:34.614Z,8.27
2019-04-11T08:36:09.509Z,9.87
2019-04-11T08:40:17.615Z,9.33
2019-04-11T08:44:29.970Z,8.67
2019-04-11T08:48:39.363Z,8.53
2019-04-11T08:53:04.566Z,7.33
2019-04-11T08:57:13.762Z,8.23
2019-04-11T09:01:22.134Z,8.17
2019-04-11T09:05:55.310Z,7.87
2019-04-11T09:10:31.805Z,8.00
2019-04-11T09:14:56.774Z,7.77
2019-04-11T09:19:10.450Z,8.20
2019-04-11T09:23:21.746Z,7.77
2019-04-11T09:27:49.013Z,8.10
2019-04-11T09:32:15.989Z,7.90
2019-04-11T09:36:40.980Z,8.00
2019-04-11T09:40:54.507Z,9.03
2019-04-11T09:45:19.623Z,8.30
2019-04-11T09:49:36.076Z,9.00
2019-04-11T09:53:45.020Z,10.57
2019-04-11T09:57:58.197Z,10.27
2019-04-11T10:02:21.701Z,8.73
2019-04-11T10:07:03.409Z,8.27
2019-04-11T10:11:30.372Z,8.47
2019-04-11T10:15:54.248Z,8.13
2019-04-11T10:20:04.727Z,7.97
2019-04-11T10:24:36.767Z,9.20
2019-04-11T10:29:12.199Z,9.50
2019-04-11T10:33:35.724Z,8.00
2019-04-11T10:37:44.308Z,7.70
2019-04-11T10:41:54.527Z,8.00
2019-04-11T10:46:13.331Z,7.83
2019-04-11T10:50:40.246Z,7.80
2019-04-11T10:55:03.730Z,7.33
2019-04-11T10:59:10.902Z,6.27
2019-04-11T11:03:27.297Z,7.23
2019-04-11T11:07:34.981Z,7.17
2019-04-11T11:11:51.036Z,6.27
2019-04-11T11:16:00.134Z,7.63
2019-04-11T11:20:38.891Z,6.90
2019-04-11T11:25:00.137Z,6.80
2019-04-11T11:29:20.574Z,6.93
2019-04-11T11:33:30.082Z,7.47
2019-04-11T11:37:53.435Z,8.17
2019-04-11T11:42:22.186Z,7.53
2019-04-11T11:46:47.997Z,8.23
2019-04-11T11:50:54.980Z,8.63
2019-04-11T11:55:02.201Z,8.00
2019-04-11T11:59:15.265Z,9.20
2019-04-11T12:03:42.630Z,9.00
2019-04-11T12:08:08.749Z,9.30
2019-04-11T12:12:19.790Z,9.87
2019-04-11T12:16:37.674Z,10.10
2019-04-11T12:20:59.051Z,12.50
2019-04-11T12:25:20.828Z,10.93
2019-04-11T12:30:04.444Z,11.47
2019-04-11T12:34:30.314Z,9.73
2019-04-11T12:39:00.782Z,9.00
2019-04-11T12:43:10.848Z,8.97
2019-04-11T12:47:23.218Z,8.70
2019-04-11T12:51:49.349Z,8.80
2019-04-11T12:56:15.142Z,8.50
2019-04-11T13:00:59.604Z,8.57
2019-04-11T13:05:07.502Z,9.03
2019-04-11T13:09:33.435Z,9.13
2019-04-11T13:13:50.404Z,10.63
2019-04-11T13:18:32.057Z,8.17
2019-04-11T13:22:42.488Z,8.77
2019-04-11T13:27:28.401Z,8.97
2019-04-11T13:31:54.280Z,9.13
2019-04-11T13:36:17.866Z,9.20
2019-04-11T13:40:49.782Z,9.30
2019-04-11T13:44:56.523Z,8.50
2019-04-11T13:49:25.042Z,8.60
2019-04-11T13:53:53.692Z,8.63
2019-04-11T13:58:28.580Z,8.93
2019-04-11T14:02:51.186Z,9.90
2019-04-11T14:06:55.955Z,8.97
2019-04-11T14:11:08.557Z,9.10
2019-04-11T14:15:18.855Z,9.77
2019-04-11T14:19:44.644Z,9.07
2019-04-11T14:24:11.697Z,9.83
2019-04-11T14:28:19.540Z,10.00
2019-04-11T14:32:31.125Z,9.37
2019-04-11T14:36:52.729Z,14.03
2019-04-11T14:41:09.891Z,9.13
2019-04-11T14:45:36.592Z,9.33
2019-04-11T14:49:45.945Z,8.67
2019-04-11T14:54:08.159Z,9.50
2019-04-11T14:58:44.808Z,9.00
2019-04-11T15:03:08.433Z,9.33
2019-04-11T15:07:15.655Z,10.87
2019-04-11T15:11:36.954Z,9.30
2019-04-11T15:16:10.983Z,9.73
2019-04-11T15:20:34.088Z,8.47
2019-04-11T15:24:50.798Z,9.10
2019-04-11T15:29:05.271Z,8.40
2019-04-11T15:33:54.483Z,8.07
2019-04-11T15:38:32.565Z,8.80
2019-04-11T15:43:13.369Z,9.47
2019-04-11T15:47:20.904Z,8.77
2019-04-11T15:51:31.687Z,9.47
2019-04-11T15:55:57.370Z,8.80
2019-04-11T16:00:31.247Z,8.43
2019-04-11T16:04:59.336Z,8.97
2019-04-11T16:09:13.943Z,9.60
2019-04-11T16:13:32.653Z,10.03
2019-04-11T16:17:57.996Z,9.83
2019-04-11T16:22:16.310Z,9.07
2019-04-11T16:26:29.448Z,9.73
2019-04-11T16:30:45.055Z,9.93
2019-04-11T16:35:07.689Z,12.43
2019-04-11T16:39:50.363Z,10.27
2019-04-11T16:43:58.491Z,10.20
2019-04-11T16:48:14.803Z,10.10
2019-04-11T16:52:23.043Z,9.70
2019-04-11T16:56:30.162Z,9.77
2019-04-11T17:00:37.200Z,9.60
2019-04-11T17:04:43.966Z,8.67
2019-04-11T17:08:56.904Z,10.80
2019-04-11T17:13:04.125Z,9.77
2019-04-11T17:17:15.157Z,9.47
2019-04-11T17:21:19.359Z,11.60
2019-04-11T17:25:26.187Z,9.57
2019-04-11T17:29:33.191Z,10.67
2019-04-11T17:33:39.964Z,8.90
2019-04-11T17:37:46.760Z,12.07
2019-04-11T17:41:53.443Z,7.73
2019-04-11T17:46:00.356Z,8.67
2019-04-11T17:50:08.029Z,8.63
2019-04-11T17:54:14.894Z,9.17
2019-04-11T17:58:21.623Z,9.73
2019-04-11T18:02:28.508Z,11.70
2019-04-11T18:06:35.363Z,8.70
2019-04-11T18:10:42.249Z,9.33
2019-04-11T18:14:48.957Z,7.80
2019-04-11T18:18:56.691Z,8.43
2019-04-11T18:23:06.550Z,9.53
2019-04-11T18:27:13.294Z,8.53
2019-04-11T18:31:19.949Z,8.03
2019-04-11T18:35:26.651Z,9.17
2019-04-11T18:39:33.680Z,8.30
2019-04-11T18:43:41.802Z,8.23
2019-04-11T18:47:49.103Z,9.70
2019-04-11T18:51:56.052Z,9.43
2019-04-11T18:56:02.785Z,7.70
2019-04-11T19:00:14.876Z,9.83
2019-04-11T19:04:31.863Z,8.00
2019-04-11T19:08:30.156Z,8.03
2019-04-11T19:12:36.961Z,7.73
2019-04-11T19:16:46.104Z,8.87
2019-04-11T19:20:52.820Z,7.33
2019-04-11T19:24:59.885Z,67.60
2019-04-11T19:29:06.787Z,9.57
2019-04-11T19:33:13.869Z,7.60
2019-04-11T19:37:20.681Z,7.00
2019-04-11T19:41:33.266Z,8.37
2019-04-11T19:45:40.180Z,8.20
2019-04-11T19:49:46.861Z,8.43
2019-04-11T19:53:53.576Z,7.20
2019-04-11T19:58:00.480Z,7.03
2019-04-11T20:02:07.265Z,7.43
2019-04-11T20:06:14.269Z,10.57
2019-04-11T20:10:21.078Z,7.70
2019-04-11T20:14:27.764Z,6.73
2019-04-11T20:18:34.431Z,7.10
2019-04-11T20:22:42.341Z,7.67
2019-04-11T20:26:50.309Z,6.53
2019-04-11T20:30:57.576Z,7.13
2019-04-11T20:35:09.328Z,7.70
2019-04-11T20:39:16.041Z,7.40
2019-04-11T20:43:25.468Z,9.30
2019-04-11T20:47:31.480Z,7.20
2019-04-11T20:51:38.419Z,6.90
2019-04-11T20:55:45.200Z,7.83
2019-04-11T20:59:51.934Z,7.03
2019-04-11T21:04:00.668Z,6.80
2019-04-11T21:08:08.180Z,7.53
2019-04-11T21:12:16.576Z,7.33
2019-04-11T21:16:23.400Z,7.30
2019-04-11T21:20:31.512Z,7.20
2019-04-11T21:24:38.276Z,7.73
2019-04-11T21:28:44.980Z,7.10
2019-04-11T21:32:54.804Z,6.73
2019-04-11T21:37:02.624Z,7.60
2019-04-11T21:41:09.661Z,6.30
2019-04-11T21:45:16.365Z,8.30
2019-04-11T21:49:23.050Z,7.17
2019-04-11T21:53:36.455Z,6.40
2019-04-11T21:57:38.328Z,9.17
2019-04-11T22:01:46.498Z,6.60
2019-04-11T22:05:53.238Z,9.33
2019-04-11T22:09:59.954Z,7.50
2019-04-11T22:14:11.012Z,6.87
2019-04-11T22:18:16.816Z,6.90
2019-04-11T22:22:23.767Z,8.60
2019-04-11T22:26:30.747Z,7.53
2019-04-11T22:30:37.459Z,7.30
2019-04-11T22:34:47.917Z,7.17
2019-04-11T22:38:54.744Z,7.53
2019-04-11T22:43:08.123Z,7.83
2019-04-11T22:47:14.175Z,7.63
2019-04-11T22:51:20.876Z,9.40
2019-04-11T22:55:27.547Z,6.43
2019-04-11T22:59:34.611Z,7.63
2019-04-11T23:03:47.710Z,7.27
2019-04-11T23:07:54.474Z,8.73
2019-04-11T23:12:01.163Z,7.67
2019-04-11T23:16:07.850Z,7.50
2019-04-11T23:20:15.041Z,8.60
2019-04-11T23:24:21.814Z,8.57
2019-04-11T23:28:28.536Z,8.47
2019-04-11T23:32:35.217Z,9.17
2019-04-11T23:36:42.186Z,10.00
2019-04-11T23:40:51.205Z,7.10
2019-04-11T23:44:57.261Z,7.37
2019-04-11T23:49:03.963Z,8.20
2019-04-11T23:53:10.644Z,6.87
2019-04-11T23:57:17.271Z,7.63
